Time;durP1;ratioP1;P1;durP2;ratioP2;P2;SDS_P1;SDS_P2;PMS_P1;PMS_P2;Temp;Humidity;BMP_temperature;BMP_pressure;BME280_temperature;BME280_humidity;BME280_pressure;Samples;Min_cycle;Max_cycle;Signal;HPM_P1;HPM_P2
2022/11/19 00:02:00;;;;;;;20.90;19.20;;;;;;;-2.85;81.95;97041.43;105113;1308;22193;-86
2022/11/19 00:04:29;;;;;;;20.20;18.50;;;;;;;-2.87;81.93;97038.39;104833;1327;22176;-85
2022/11/19 00:06:57;;;;;;;21.20;19.10;;;;;;;-2.88;82.03;97035.84;104822;1326;22227;-87
2022/11/19 00:09:25;;;;;;;18.10;16.40;;;;;;;-2.88;81.79;97034.21;105027;1315;22823;-86
2022/11/19 00:14:39;;;;;;;20.60;18.50;;;;;;;-2.91;81.42;97034.31;104919;1318;22159;-88
2022/11/19 00:17:13;;;;;;;19.80;18.10;;;;;;;-2.95;81.43;97040.77;105729;1298;24491;31
2022/11/19 00:19:41;;;;;;;;;;;;;;;-2.97;81.47;97042.73;104965;1290;22424;-88
2022/11/19 00:22:09;;;;;;;20.30;18.40;;;;;;;-2.98;81.71;97043.73;104921;1326;22224;-86
2022/11/19 00:24:38;;;;;;;19.30;17.50;;;;;;;-2.93;81.74;97042.96;104912;1327;22079;-88
2022/11/19 00:27:06;;;;;;;19.80;18.00;;;;;;;-2.92;81.60;97043.88;104870;1327;22211;-89
2022/11/19 00:29:35;;;;;;;19.40;17.70;;;;;;;-2.93;81.75;97046.30;104957;1327;22146;-88
2022/11/19 00:32:03;;;;;;;18.40;16.80;;;;;;;-2.95;81.65;97051.80;104925;1326;22185;-88
2022/11/19 00:34:31;;;;;;;18.50;16.70;;;;;;;-2.98;81.40;97059.58;104933;1317;22219;-88
2022/11/19 00:36:59;;;;;;;16.40;15.00;;;;;;;-2.98;81.58;97058.27;105294;1318;22721;-89
2022/11/19 00:39:27;;;;;;;17.50;15.80;;;;;;;-2.92;81.74;97061.40;104946;1326;22205;-86
2022/11/19 00:41:55;;;;;;;17.30;15.60;;;;;;;-2.90;81.77;97066.38;104870;1322;22219;-89
2022/11/19 00:44:23;;;;;;;18.90;17.20;;;;;;;-2.92;81.56;97067.48;105404;1312;22150;-89
2022/11/19 00:46:51;;;;;;;18.30;16.80;;;;;;;-2.92;81.65;97064.61;105474;1319;22353;-87
2022/11/19 00:49:19;;;;;;;17.60;15.90;;;;;;;-2.94;81.58;97066.26;105026;1298;22797;-91
2022/11/19 00:51:47;;;;;;;16.90;15.50;;;;;;;-2.95;81.85;97065.81;104810;1329;22220;-92
2022/11/19 00:54:15;;;;;;;17.20;15.50;;;;;;;-2.95;81.98;97059.11;105331;1319;22235;-90
2022/11/19 00:56:43;;;;;;;18.50;16.80;;;;;;;-2.94;81.92;97059.41;105056;1330;22150;-90
2022/11/19 00:59:11;;;;;;;19.30;17.60;;;;;;;-2.94;81.98;97056.13;105239;1319;22107;-91
2022/11/19 01:01:39;;;;;;;20.40;18.60;;;;;;;-2.99;82.13;97052.23;104999;1327;22754;-90
2022/11/19 01:04:07;;;;;;;19.10;17.30;;;;;;;-3.03;82.03;97053.36;105439;1300;22168;-93
2022/11/19 01:06:41;;;;;;;19.20;17.50;;;;;;;-3.02;82.20;97052.59;104890;1323;22588;-89
2022/11/19 01:09:08;;;;;;;17.90;16.30;;;;;;;-3.02;82.14;97057.33;105001;1328;22828;-90
2022/11/19 01:11:37;;;;;;;20.00;18.30;;;;;;;-3.04;82.50;97061.83;105264;1314;22106;-90
2022/11/19 01:14:06;;;;;;;18.80;17.00;;;;;;;-3.05;82.42;97065.65;104755;1330;22270;-89
2022/11/19 01:16:37;;;;;;;19.20;17.50;;;;;;;-3.07;82.38;97058.98;104796;1330;22346;-91
2022/11/19 01:19:08;;;;;;;17.90;16.40;;;;;;;-3.08;82.59;97063.34;104824;1330;23038;-90
2022/11/19 01:21:36;;;;;;;19.70;17.80;;;;;;;-3.07;82.56;97056.45;105162;1315;22348;-91
2022/11/19 01:24:04;;;;;;;18.90;17.20;;;;;;;-3.08;82.61;97063.65;104902;1330;22109;-93
2022/11/19 01:26:32;;;;;;;19.70;18.10;;;;;;;-3.05;82.65;97068.02;104875;1324;22135;-91
2022/11/19 01:29:01;;;;;;;19.00;17.20;;;;;;;-3.09;82.29;97074.05;104855;1328;22915;-91
2022/11/19 01:31:29;;;;;;;19.10;17.30;;;;;;;-3.12;82.45;97077.73;104573;1328;22221;-90
2022/11/19 01:33:58;;;;;;;17.70;16.10;;;;;;;-3.12;82.58;97077.99;104715;1330;22121;-88
2022/11/19 01:36:28;;;;;;;18.00;16.40;;;;;;;-3.09;82.73;97083.54;104776;1322;22206;-90
2022/11/19 01:38:56;;;;;;;19.30;17.60;;;;;;;-3.08;82.45;97090.01;104773;1330;22806;-90
2022/11/19 01:41:31;;;;;;;19.90;18.10;;;;;;;-3.13;82.18;97094.10;104864;1322;22806;-89
2022/11/19 01:44:02;;;;;;;20.60;18.50;;;;;;;-3.15;82.21;97093.27;104774;1330;22303;-90
2022/11/19 01:46:33;;;;;;;19.60;17.90;;;;;;;-3.15;82.37;97092.05;104572;1330;22265;-89
2022/11/19 01:49:01;;;;;;;18.60;17.00;;;;;;;-3.14;82.53;97093.34;104488;1330;22261;-88
2022/11/19 01:51:39;;;;;;;20.70;18.90;;;;;;;-3.13;82.53;97091.20;104858;1323;22121;-90
2022/11/19 01:54:17;;;;;;;21.30;19.20;;;;;;;-3.12;82.53;97090.52;104807;1324;22728;-92
2022/11/19 01:56:46;;;;;;;19.10;17.40;;;;;;;-3.14;82.52;97088.29;105041;1322;22178;-90
2022/11/19 01:59:16;;;;;;;18.00;16.50;;;;;;;-3.10;82.20;97083.92;105152;1323;22325;-90
2022/11/19 02:01:46;;;;;;;18.20;16.40;;;;;;;-3.09;82.23;97094.36;104768;1329;22260;-93
2022/11/19 02:04:16;;;;;;;19.20;17.40;;;;;;;-3.07;82.15;97099.70;104860;1330;22127;-93
2022/11/19 02:06:44;;;;;;;21.70;19.70;;;;;;;-3.11;82.12;97096.99;104836;1330;22258;-90
2022/11/19 02:09:12;;;;;;;21.00;19.20;;;;;;;-3.15;82.41;97096.65;104898;1329;22252;-92
2022/11/19 02:12:09;;;;;;;19.30;17.60;;;;;;;-3.16;82.54;97099.30;105036;1328;23000;-92
2022/11/19 02:14:37;;;;;;;19.50;17.80;;;;;;;-3.14;82.52;97099.36;104936;1330;22124;-92
2022/11/19 02:17:19;;;;;;;20.80;18.80;;;;;;;-3.12;82.73;97107.30;104859;1330;22083;-91
2022/11/19 02:20:12;;;;;;;21.90;20.00;;;;;;;-3.16;82.66;97109.11;104722;1329;22167;-91
2022/11/19 02:22:46;;;;;;;22.70;20.40;;;;;;;-3.19;83.06;97112.77;104886;1330;22250;-91
2022/11/19 02:25:21;;;;;;;20.60;18.70;;;;;;;-3.27;83.34;97117.51;104917;1328;22813;-90
2022/11/19 02:28:00;;;;;;;22.40;20.50;;;;;;;-3.28;83.52;97121.55;104876;1330;22389;-94
2022/11/19 02:30:37;;;;;;;24.60;22.10;;;;;;;-3.26;83.60;97128.50;104902;1330;22182;-92
2022/11/19 02:33:14;;;;;;;24.00;21.80;;;;;;;-3.25;83.48;97130.36;104968;1308;22812;-93
2022/11/19 02:35:49;;;;;;;25.70;23.40;;;;;;;-3.29;83.33;97122.42;104871;1329;22758;-93
2022/11/19 02:38:36;;;;;;;23.80;21.40;;;;;;;-3.29;83.59;97119.64;104734;1312;22232;-93
2022/11/19 02:41:33;;;;;;;25.70;23.20;;;;;;;-3.29;83.77;97121.42;104842;1329;22259;-90
2022/11/19 02:47:19;;;;;;;24.00;21.60;;;;;;;-3.42;83.80;97141.41;104973;1321;22256;-89
2022/11/19 02:49:53;;;;;;;24.00;21.90;;;;;;;-3.42;84.01;97155.15;105008;1322;22770;-91
2022/11/19 02:52:21;;;;;;;26.90;24.50;;;;;;;-3.41;84.13;97152.07;104875;1326;22119;-93
2022/11/19 02:54:49;;;;;;;27.50;24.90;;;;;;;-3.42;84.16;97153.21;104802;1330;22086;-92
2022/11/19 02:57:16;;;;;;;25.50;23.20;;;;;;;-3.47;84.07;97158.83;104842;1330;22127;-89
2022/11/19 03:05:47;;;;;;;25.30;23.00;;;;;;;-3.51;84.44;97157.20;104785;1330;22962;-91
2022/11/19 03:08:15;;;;;;;24.90;22.70;;;;;;;-3.49;84.58;97154.73;104796;1329;22175;-93
2022/11/19 03:11:10;;;;;;;24.70;22.40;;;;;;;-3.48;84.55;97157.48;104594;1330;22211;-92
2022/11/19 03:16:41;;;;;;;24.60;22.00;;;;;;;-3.49;84.64;97156.77;104882;1321;22207;-90
2022/11/19 03:19:34;;;;;;;24.80;22.40;;;;;;;-3.44;84.82;97167.63;104760;1330;22201;-90
2022/11/19 03:22:28;;;;;;;24.80;22.60;;;;;;;-3.46;84.91;97167.13;104712;1329;22121;-90
2022/11/19 03:25:08;;;;;;;26.40;23.90;;;;;;;-3.51;84.99;97170.05;104974;1317;22260;-90
2022/11/19 03:27:41;;;;;;;24.10;21.90;;;;;;;-3.53;84.78;97168.99;104809;1329;22801;-91
2022/11/19 03:30:10;;;;;;;23.90;21.70;;;;;;;-3.53;85.16;97174.50;104937;1314;22126;-90
2022/11/19 03:32:53;;;;;;;25.80;23.40;;;;;;;-3.51;85.20;97175.80;105131;1320;22204;-90
2022/11/19 03:35:29;;;;;;;28.00;25.40;;;;;;;-3.50;85.53;97184.04;104835;1329;22155;-90
2022/11/19 03:38:02;;;;;;;28.00;25.40;;;;;;;-3.52;85.69;97189.79;104799;1330;22160;-87
2022/11/19 03:40:32;;;;;;;26.70;24.20;;;;;;;-3.56;85.50;97186.98;105062;1323;22188;-85
2022/11/19 03:43:05;;;;;;;25.00;22.60;;;;;;;-3.54;85.70;97192.54;105148;1308;22277;-89
2022/11/19 03:45:40;;;;;;;24.70;22.40;;;;;;;-3.48;85.73;97193.98;104801;1329;22214;-90
2022/11/19 03:48:12;;;;;;;29.00;26.30;;;;;;;-3.47;85.85;97197.38;104680;1330;22306;-87
2022/11/19 03:51:27;;;;;;;28.90;25.90;;;;;;;-3.47;85.84;97196.77;105102;1315;23085;-87
2022/11/19 03:53:55;;;;;;;26.30;24.00;;;;;;;-3.46;85.80;97193.99;104286;1330;22305;-89
2022/11/19 03:56:25;;;;;;;25.20;22.70;;;;;;;-3.45;85.81;97192.80;104396;1333;22213;-90
2022/11/19 03:58:53;;;;;;;26.00;23.70;;;;;;;-3.44;86.24;97195.51;104513;1328;22211;-91
2022/11/19 04:01:21;;;;;;;26.40;24.10;;;;;;;-3.45;86.50;97195.11;104327;1335;22301;-90
2022/11/19 04:06:36;;;;;;;29.10;26.60;;;;;;;-3.54;86.61;97201.58;104331;1336;22893;-89
2022/11/19 04:09:04;;;;;;;27.80;25.00;;;;;;;-3.53;86.80;97203.59;104315;1336;22295;-91
2022/11/19 04:11:31;;;;;;;30.10;27.30;;;;;;;-3.51;86.92;97203.14;104446;1336;23092;-92
2022/11/19 04:13:59;;;;;;;30.10;27.30;;;;;;;-3.48;86.73;97200.42;104422;1335;22964;-90
2022/11/19 04:16:27;;;;;;;33.90;30.70;;;;;;;-3.48;86.59;97205.58;104644;1329;22234;-88
2022/11/19 04:18:55;;;;;;;32.70;30.00;;;;;;;-3.46;86.54;97205.30;104388;1336;22168;-89
2022/11/19 04:21:23;;;;;;;32.50;29.70;;;;;;;-3.45;86.61;97201.84;104321;1336;22985;-91
2022/11/19 04:23:51;;;;;;;32.10;29.30;;;;;;;-3.44;86.50;97205.73;104357;1330;22116;-88
2022/11/19 04:26:19;;;;;;;29.90;27.30;;;;;;;-3.41;86.36;97211.49;104877;1330;22288;-89
2022/11/19 04:28:47;;;;;;;28.80;26.10;;;;;;;-3.34;86.49;97217.81;105215;1314;22227;-89
2022/11/19 04:31:15;;;;;;;32.30;29.50;;;;;;;-3.30;86.74;97223.25;104977;1314;22283;-89
2022/11/19 04:34:35;;;;;;;30.90;28.20;;;;;;;-3.30;86.66;97227.15;104852;1330;22101;-90
2022/11/19 04:37:03;;;;;;;32.00;29.10;;;;;;;-3.29;86.56;97225.42;105147;1317;22184;-89
2022/11/19 04:39:31;;;;;;;36.10;32.80;;;;;;;-3.26;86.67;97222.39;104810;1330;22294;-89
2022/11/19 04:41:59;;;;;;;32.00;28.90;;;;;;;-3.28;86.72;97224.14;104904;1329;22282;-90
2022/11/19 04:44:27;;;;;;;29.80;27.00;;;;;;;-3.26;86.70;97225.98;104764;1330;22155;-90
2022/11/19 04:46:55;;;;;;;32.40;29.50;;;;;;;-3.24;86.92;97224.90;104831;1330;22223;-89
2022/11/19 04:49:23;;;;;;;32.80;29.90;;;;;;;-3.29;87.20;97227.89;104818;1322;22110;-91
2022/11/19 04:51:51;;;;;;;34.30;31.30;;;;;;;-3.35;87.21;97230.80;105084;1322;22186;-89
2022/11/19 04:54:19;;;;;;;32.40;29.50;;;;;;;-3.39;87.23;97236.52;104746;1330;22169;-91
2022/11/19 04:56:47;;;;;;;31.70;28.70;;;;;;;-3.42;87.53;97238.34;104639;1330;22163;-88
2022/11/19 04:59:16;;;;;;;25.20;22.90;;;;;;;-3.40;87.42;97241.90;104888;1330;22288;-90
2022/11/19 05:01:45;;;;;;;29.90;27.20;;;;;;;-3.36;87.72;97245.44;104883;1314;21930;-88
2022/11/19 05:04:13;;;;;;;34.30;31.30;;;;;;;-3.34;87.87;97245.68;104930;1330;22200;-88
2022/11/19 05:06:41;;;;;;;36.60;33.40;;;;;;;-3.37;87.80;97251.25;104926;1329;22230;-91
2022/11/19 05:09:09;;;;;;;35.10;31.90;;;;;;;-3.41;88.18;97255.69;104961;1323;22114;-90
2022/11/19 05:11:37;;;;;;;32.90;29.50;;;;;;;-3.44;88.17;97256.05;104754;1330;22908;-90
2022/11/19 05:14:04;;;;;;;34.10;31.00;;;;;;;-3.40;88.44;97264.45;104971;1318;22198;-89
2022/11/19 05:16:32;;;;;;;33.20;30.00;;;;;;;-3.37;88.04;97270.06;104862;1330;22110;-88
2022/11/19 05:19:00;;;;;;;34.70;31.60;;;;;;;-3.33;88.10;97275.42;104852;1330;22945;-89
2022/11/19 05:21:28;;;;;;;34.50;31.30;;;;;;;-3.31;88.07;97277.65;104842;1330;22105;-89
2022/11/19 05:23:56;;;;;;;32.40;29.30;;;;;;;-3.30;88.33;97279.52;104709;1330;22131;-89
2022/11/19 05:30:34;;;;;;;31.30;28.50;;;;;;;-3.27;88.48;97291.29;104909;1326;22188;-90
2022/11/19 05:33:02;;;;;;;35.50;32.30;;;;;;;-3.27;88.48;97291.92;104983;1323;22168;-88
2022/11/19 05:35:30;;;;;;;36.50;33.20;;;;;;;-3.29;88.54;97293.40;104694;1330;22226;-89
2022/11/19 05:37:58;;;;;;;33.10;30.10;;;;;;;-3.23;88.33;97290.08;104980;1324;22274;-89
2022/11/19 05:40:26;;;;;;;33.20;30.20;;;;;;;-3.15;88.32;97294.16;104973;1330;22866;-90
2022/11/19 05:42:54;;;;;;;33.20;29.90;;;;;;;-3.05;88.17;97298.32;104826;1328;22252;-89
2022/11/19 05:45:22;;;;;;;34.20;30.80;;;;;;;-2.95;88.28;97298.56;104970;1321;22784;-88
2022/11/19 05:47:53;;;;;;;33.70;30.70;;;;;;;-2.85;88.16;97297.11;104784;1330;23043;-86
2022/11/19 05:50:21;;;;;;;34.70;31.50;;;;;;;-2.79;87.97;97305.70;104794;1330;22185;-88
2022/11/19 05:52:50;;;;;;;35.80;32.40;;;;;;;-2.73;88.04;97311.94;104901;1318;22197;-88
2022/11/19 05:55:19;;;;;;;35.40;32.20;;;;;;;-2.72;87.74;97315.09;104715;1329;22241;-87
2022/11/19 05:57:47;;;;;;;36.10;33.00;;;;;;;-2.72;87.96;97320.15;104829;1330;22256;-89
2022/11/19 06:00:18;;;;;;;34.10;30.90;;;;;;;-2.73;87.89;97326.98;104859;1328;22256;-88
2022/11/19 06:02:46;;;;;;;33.80;30.70;;;;;;;-2.74;87.72;97333.86;105184;1323;22084;-89
2022/11/19 06:05:14;;;;;;;32.70;29.70;;;;;;;-2.74;87.90;97336.09;104858;1329;22145;-90
2022/11/19 06:07:42;;;;;;;34.40;31.00;;;;;;;-2.72;87.83;97342.51;104853;1323;22106;-90
2022/11/19 06:10:10;;;;;;;38.50;34.90;;;;;;;-2.71;88.07;97350.77;104760;1329;22269;-90
2022/11/19 06:12:38;;;;;;;38.60;35.20;;;;;;;-2.70;87.91;97354.37;104735;1330;22112;-91
2022/11/19 06:15:13;;;;;;;39.30;36.00;;;;;;;-2.78;87.81;97358.08;104855;1328;23029;-91
2022/11/19 06:17:41;;;;;;;38.70;35.20;;;;;;;-2.86;87.97;97361.27;104646;1330;22137;-91
2022/11/19 06:20:10;;;;;;;36.80;33.50;;;;;;;-2.89;88.01;97360.13;104841;1328;22268;-91
2022/11/19 06:22:38;;;;;;;36.80;33.60;;;;;;;-2.92;88.40;97357.33;104961;1308;22334;-92
2022/11/19 06:25:07;;;;;;;38.90;35.60;;;;;;;-2.95;88.61;97356.08;104735;1330;22315;-92
2022/11/19 06:27:35;;;;;;;41.80;38.10;;;;;;;-2.98;88.47;97360.91;104800;1329;22476;-90
2022/11/19 06:30:04;;;;;;;39.90;36.30;;;;;;;-3.00;88.28;97365.08;104805;1330;22336;-92
2022/11/19 06:32:32;;;;;;;39.40;35.90;;;;;;;-3.02;88.36;97372.77;104942;1329;22144;-91
2022/11/19 06:35:00;;;;;;;36.70;33.50;;;;;;;-2.97;88.82;97383.81;104872;1329;22171;-90
2022/11/19 06:37:28;;;;;;;31.10;28.30;;;;;;;-2.99;88.76;97391.83;104861;1321;22237;-91
2022/11/19 06:39:56;;;;;;;32.40;29.40;;;;;;;-3.06;89.02;97396.39;104887;1329;22802;-92
2022/11/19 06:42:36;;;;;;;31.70;28.60;;;;;;;-3.07;88.68;97399.95;105133;1320;22201;-92
2022/11/19 06:45:10;;;;;;;32.20;29.30;;;;;;;-3.06;88.40;97398.23;104732;1318;22189;-91
2022/11/19 06:47:40;;;;;;;34.20;30.80;;;;;;;-3.05;88.68;97403.70;104809;1325;22195;-89
2022/11/19 06:50:09;;;;;;;31.90;29.10;;;;;;;-2.98;88.60;97405.04;104800;1330;22194;-88
2022/11/19 06:52:37;;;;;;;32.50;29.30;;;;;;;-2.90;88.39;97405.81;104771;1329;22193;-90
2022/11/19 06:55:05;;;;;;;33.70;30.20;;;;;;;-2.88;88.45;97410.40;104997;1322;22189;-90
2022/11/19 06:57:33;;;;;;;33.50;29.90;;;;;;;-2.91;88.29;97413.27;104873;1330;22171;-89
2022/11/19 07:00:02;;;;;;;35.00;31.60;;;;;;;-2.91;88.21;97415.08;104613;1330;22228;-89
2022/11/19 07:02:30;;;;;;;31.80;29.00;;;;;;;-2.88;88.24;97416.95;104729;1330;22360;-90
2022/11/19 07:04:58;;;;;;;30.50;27.80;;;;;;;-2.85;88.51;97419.33;104968;1306;22671;-90
2022/11/19 07:07:26;;;;;;;33.10;30.00;;;;;;;-2.73;89.12;97420.81;104833;1330;22213;-89
2022/11/19 07:09:54;;;;;;;31.80;28.80;;;;;;;-2.53;89.10;97417.80;104696;1329;22111;-90
2022/11/19 07:12:22;;;;;;;35.80;32.40;;;;;;;-2.39;88.72;97415.22;104668;1324;22164;-91
2022/11/19 07:14:50;;;;;;;34.10;30.80;;;;;;;-2.21;88.91;97416.73;104682;1330;22248;-91
2022/11/19 07:17:18;;;;;;;32.80;29.80;;;;;;;-2.08;88.67;97418.02;104792;1330;22804;-89
2022/11/19 07:19:46;;;;;;;33.50;30.80;;;;;;;-1.92;88.84;97420.51;104940;1321;151586;-89
2022/11/19 07:22:14;;;;;;;37.90;34.50;;;;;;;-1.82;88.57;97421.38;104701;1330;22228;-90
2022/11/19 07:29:06;;;;;;;41.50;37.80;;;;;;;-1.70;87.89;97422.73;104891;1329;22140;-89
2022/11/19 07:31:34;;;;;;;43.00;39.30;;;;;;;-1.80;87.58;97427.08;104844;1325;22142;-89
2022/11/19 07:34:05;;;;;;;45.70;41.60;;;;;;;-1.78;88.10;97432.02;104813;1321;22193;-90
2022/11/19 07:36:34;;;;;;;43.70;39.90;;;;;;;-1.72;88.06;97431.67;104816;1330;23251;-90
2022/11/19 07:39:03;;;;;;;42.20;38.50;;;;;;;-1.61;88.13;97433.19;104813;1330;22129;-90
2022/11/19 07:44:18;;;;;;;42.70;39.00;;;;;;;-1.45;88.48;97431.03;104877;1323;22233;-92
2022/11/19 07:46:46;;;;;;;40.50;36.90;;;;;;;-1.36;88.47;97424.91;104858;1330;22898;-91
2022/11/19 07:49:14;;;;;;;41.20;37.70;;;;;;;-1.30;88.50;97428.00;104879;1324;22197;-88
2022/11/19 07:51:43;;;;;;;38.20;35.00;;;;;;;-1.29;88.27;97431.19;104844;1329;22193;-90
2022/11/19 07:54:13;;;;;;;40.60;37.10;;;;;;;-1.28;88.10;97432.31;104908;1329;22679;-92
2022/11/19 07:56:41;;;;;;;26.50;24.20;;;;;;;-1.37;87.20;97439.12;105193;1314;22807;-92
2022/11/19 07:59:09;;;;;;;23.20;21.20;;;;;;;-1.52;87.25;97441.61;104660;1323;22187;-92
2022/11/19 08:01:37;;;;;;;25.50;23.30;;;;;;;-1.69;86.78;97444.10;104589;1330;22231;-91
2022/11/19 08:04:06;;;;;;;24.60;22.40;;;;;;;-1.80;86.88;97441.10;104831;1329;22891;-89
2022/11/19 08:06:34;;;;;;;23.20;21.30;;;;;;;-1.94;86.25;97435.84;104976;1314;22197;-91
2022/11/19 08:09:03;;;;;;;24.70;22.70;;;;;;;-2.17;85.82;97431.93;104877;1321;22119;-91
2022/11/19 08:11:31;;;;;;;25.50;23.40;;;;;;;-2.36;85.86;97437.35;104731;1330;22223;-91
2022/11/19 08:14:02;;;;;;;21.70;19.90;;;;;;;-2.48;85.80;97438.95;104767;1330;22120;-92
2022/11/19 08:19:18;;;;;;;23.40;21.40;;;;;;;-2.63;85.56;97445.27;104752;1330;22814;-91
2022/11/19 08:22:13;;;;;;;25.60;23.50;;;;;;;-2.75;85.94;97442.96;104879;1328;22114;-91
2022/11/19 08:24:41;;;;;;;28.90;26.20;;;;;;;-2.76;85.67;97445.33;105223;1314;22810;-90
2022/11/19 08:27:09;;;;;;;24.90;22.70;;;;;;;-2.84;85.75;97448.76;104952;1330;22136;-91
2022/11/19 08:29:37;;;;;;;24.40;22.20;;;;;;;-2.89;86.00;97450.89;104673;1328;22155;-91
2022/11/19 08:32:05;;;;;;;26.30;23.80;;;;;;;-2.94;86.19;97455.80;104827;1330;22229;-90
2022/11/19 08:34:33;;;;;;;25.80;23.40;;;;;;;-3.03;86.43;97458.46;104937;1329;22163;-90
2022/11/19 08:37:01;;;;;;;24.00;21.50;;;;;;;-3.12;86.41;97460.27;105192;1314;22196;-91
2022/11/19 08:39:29;;;;;;;24.90;22.00;;;;;;;-3.14;86.51;97462.90;104817;1330;22104;-91
2022/11/19 08:44:43;;;;;;;32.10;28.60;;;;;;;-2.99;86.91;97466.52;104925;1330;22207;-91
2022/11/19 08:47:11;;;;;;;33.20;29.90;;;;;;;-3.00;87.04;97468.35;104810;1330;22919;-92
2022/11/19 08:49:39;;;;;;;33.20;30.00;;;;;;;-2.97;86.94;97475.61;104863;1330;22241;-91
2022/11/19 08:52:07;;;;;;;33.80;30.30;;;;;;;-2.95;86.76;97473.16;104906;1330;22201;-90
2022/11/19 08:54:35;;;;;;;30.10;25.90;;;;;;;-2.93;86.94;97475.85;104835;1330;22211;-91
2022/11/19 08:57:04;;;;;;;25.50;23.10;;;;;;;-2.87;86.71;97477.39;104798;1328;22209;-87
2022/11/19 08:59:32;;;;;;;28.30;25.70;;;;;;;-2.83;86.72;97481.04;104718;1330;22264;-91
2022/11/19 09:02:00;;;;;;;28.90;26.20;;;;;;;-2.75;87.21;97482.72;104660;1330;22233;-87
2022/11/19 09:04:27;;;;;;;27.30;24.40;;;;;;;-2.65;87.15;97486.93;104664;1324;22941;-88
2022/11/19 09:06:56;;;;;;;29.40;26.50;;;;;;;-2.55;87.08;97492.10;104647;1315;22104;-89
2022/11/19 09:09:24;;;;;;;28.70;25.90;;;;;;;-2.41;86.92;97492.95;104750;1333;22106;-88
2022/11/19 09:11:54;;;;;;;27.60;25.00;;;;;;;-2.29;86.71;97493.71;104564;1333;22225;-88
2022/11/19 09:14:22;;;;;;;22.50;20.40;;;;;;;-2.13;86.67;97492.94;104667;1334;22188;-89
2022/11/19 09:16:50;;;;;;;24.10;22.00;;;;;;;-1.98;86.84;97491.28;104758;1333;22832;-90
2022/11/19 09:19:18;;;;;;;26.50;24.00;;;;;;;-1.81;86.88;97495.02;104921;1326;22231;-89
2022/11/19 09:21:46;;;;;;;27.20;24.80;;;;;;;-1.66;86.70;97499.95;104658;1331;22164;-88
2022/11/19 09:24:14;;;;;;;25.10;22.80;;;;;;;-1.57;86.03;97501.48;104601;1333;22168;-89
2022/11/19 09:26:42;;;;;;;24.10;21.90;;;;;;;-1.53;86.27;97505.33;104805;1324;22134;-89
2022/11/19 09:29:15;;;;;;;30.30;27.70;;;;;;;-1.41;86.82;97503.23;104659;1332;22142;-89
2022/11/19 09:31:43;;;;;;;31.50;28.70;;;;;;;-1.33;84.95;97504.63;104756;1330;22334;-88
2022/11/19 09:34:12;;;;;;;34.00;31.20;;;;;;;-1.39;84.91;97503.64;104783;1333;22896;-90
2022/11/19 09:36:40;;;;;;;51.60;46.50;;;;;;;-1.37;85.21;97501.60;104974;1318;22885;-90
2022/11/19 09:39:09;;;;;;;40.80;36.90;;;;;;;-1.33;84.89;97501.52;104827;1333;22230;-88
2022/11/19 09:41:54;;;;;;;34.80;31.80;;;;;;;-1.28;85.61;97504.50;104771;1334;22215;-88
2022/11/19 09:44:41;;;;;;;;;;;;;;;-1.12;85.33;97500.33;104920;1333;23088;-89
2022/11/19 09:47:30;;;;;;;29.60;26.90;;;;;;;-0.96;85.86;97500.34;104822;1319;22168;-90
2022/11/19 09:50:23;;;;;;;25.80;19.90;;;;;;;-0.63;85.97;97501.17;104856;1330;22096;-90
2022/11/19 09:52:57;;;;;;;36.00;32.70;;;;;;;-0.41;85.24;97503.69;104883;1328;22102;-89
2022/11/19 09:55:36;;;;;;;32.40;29.50;;;;;;;-0.33;84.96;97504.95;104759;1330;22213;-90
2022/11/19 09:58:19;;;;;;;33.30;30.20;;;;;;;-0.30;84.57;97502.77;104846;1323;22915;-89
2022/11/19 10:00:47;;;;;;;28.30;25.60;;;;;;;-0.31;84.38;97506.41;104743;1333;22912;-91
2022/11/19 10:03:23;;;;;;;27.00;24.20;;;;;;;-0.42;81.59;97506.90;104763;1329;22268;-91
2022/11/19 10:06:14;;;;;;;26.40;24.00;;;;;;;-0.78;79.86;97499.31;104853;1329;22310;-90
2022/11/19 10:09:20;;;;;;;26.60;24.00;;;;;;;-1.20;79.99;97500.27;104831;1330;22168;-90
2022/11/19 10:12:13;;;;;;;23.00;21.00;;;;;;;-1.48;81.65;97499.94;104796;1335;22168;-91
2022/11/19 10:15:00;;;;;;;25.70;23.50;;;;;;;-1.56;82.24;97497.53;104624;1332;22241;-90
2022/11/19 10:17:55;;;;;;;27.90;25.50;;;;;;;-1.63;82.58;97492.31;104757;1333;22132;-89
2022/11/19 10:20:44;;;;;;;26.30;24.00;;;;;;;-1.64;82.31;97494.77;104856;1321;23012;-89
2022/11/19 10:23:18;;;;;;;27.40;24.90;;;;;;;-1.75;81.97;97494.68;104842;1327;22735;-90
2022/11/19 10:25:48;;;;;;;26.80;24.50;;;;;;;-1.88;81.90;97496.88;104987;1323;22279;-90
2022/11/19 10:28:21;;;;;;;25.10;23.00;;;;;;;-1.86;81.96;97495.80;104782;1331;22920;-92
2022/11/19 10:30:54;;;;;;;27.10;24.70;;;;;;;-1.80;82.45;97497.32;104624;1325;22387;-91
2022/11/19 10:33:28;;;;;;;29.00;26.50;;;;;;;-1.69;82.47;97501.20;104684;1330;22309;-91
2022/11/19 10:36:01;;;;;;;31.00;28.30;;;;;;;-1.61;82.36;97502.52;104845;1329;22121;-91
2022/11/19 10:38:38;;;;;;;30.50;27.70;;;;;;;-1.56;81.98;97500.17;104753;1333;22233;-91
2022/11/19 10:41:16;;;;;;;32.90;30.00;;;;;;;-1.63;81.65;97496.27;104775;1330;22252;-90
2022/11/19 10:43:50;;;;;;;32.10;29.30;;;;;;;-1.67;81.40;97494.46;104776;1330;22284;-93
2022/11/19 10:46:23;;;;;;;29.70;27.10;;;;;;;-1.71;81.89;97493.88;104696;1330;22240;-91
2022/11/19 10:48:55;;;;;;;30.90;28.10;;;;;;;-1.66;81.83;97493.77;104941;1311;22185;-90
2022/11/19 10:51:27;;;;;;;35.90;32.60;;;;;;;-1.67;80.71;97498.67;105133;1321;22216;-92
2022/11/19 10:53:56;;;;;;;38.20;34.70;;;;;;;-1.84;81.29;97498.77;104986;1323;22926;-90
2022/11/19 10:56:44;;;;;;;34.00;31.20;;;;;;;-1.82;81.94;97494.31;104731;1330;22229;-89
2022/11/19 10:59:17;;;;;;;34.50;31.50;;;;;;;-1.73;81.87;97493.11;105111;1311;22191;-89
2022/11/19 11:02:25;;;;;;;31.50;28.90;;;;;;;-1.76;81.10;97496.36;104948;1321;22989;-89
2022/11/19 11:05:03;;;;;;;32.00;29.30;;;;;;;-1.73;81.02;97496.33;104642;1331;22967;-90
2022/11/19 11:07:51;;;;;;;31.90;29.00;;;;;;;-1.76;81.22;97498.84;104784;1330;22088;-90
2022/11/19 11:10:28;;;;;;;32.40;29.60;;;;;;;-1.74;81.61;97499.70;104564;1330;22792;-91
2022/11/19 11:16:12;;;;;;;27.50;25.20;;;;;;;-1.75;81.17;97505.04;104825;1329;22119;-89
2022/11/19 11:18:40;;;;;;;26.50;24.20;;;;;;;-1.74;81.45;97508.69;104655;1330;23158;-88
2022/11/19 11:21:35;;;;;;;29.40;26.80;;;;;;;-1.67;81.23;97513.67;104865;1328;22240;-89
2022/11/19 11:24:04;;;;;;;28.40;25.90;;;;;;;-1.63;80.51;97515.29;104925;1315;22255;-88
2022/11/19 11:26:33;;;;;;;27.60;25.20;;;;;;;-1.64;79.80;97513.05;104767;1330;22229;-89
2022/11/19 11:29:10;;;;;;;25.90;23.70;;;;;;;-1.63;79.87;97508.98;105043;1320;22215;-89
2022/11/19 11:31:41;;;;;;;27.00;24.70;;;;;;;-1.64;79.49;97509.36;104985;1327;22269;-89
2022/11/19 11:34:24;;;;;;;25.80;23.60;;;;;;;-1.59;80.39;97506.14;104809;1330;22370;-91
2022/11/19 11:37:01;;;;;;;24.80;22.70;;;;;;;-1.43;79.49;97505.70;105527;1290;22632;31
2022/11/19 11:39:35;;;;;;;26.30;23.90;;;;;;;-1.18;79.66;97509.87;104769;1297;22267;-92
2022/11/19 11:42:04;;;;;;;25.00;22.80;;;;;;;-0.93;80.01;97508.86;104835;1327;22219;-89
2022/11/19 11:44:37;;;;;;;32.40;29.40;;;;;;;0.09;80.42;97508.02;104747;1327;22363;-87
2022/11/19 11:47:18;;;;;;;32.50;29.40;;;;;;;0.73;78.55;97509.20;104843;1327;22215;-87
2022/11/19 11:49:54;;;;;;;31.60;28.60;;;;;;;0.95;76.24;97503.37;104791;1327;22213;-90
2022/11/19 11:52:50;;;;;;;21.60;19.70;;;;;;;0.96;76.19;97499.09;104817;1327;22125;-92
2022/11/19 11:55:21;;;;;;;21.30;19.20;;;;;;;0.57;74.09;97503.97;104834;1327;22263;-91
2022/11/19 11:58:01;;;;;;;29.20;26.50;;;;;;;0.14;74.50;97504.92;104947;1320;22242;-91
2022/11/19 12:00:29;;;;;;;22.00;20.10;;;;;;;-0.16;76.39;97504.77;105423;1315;22120;-90
2022/11/19 12:03:08;;;;;;;20.40;18.70;;;;;;;-0.19;76.25;97510.30;105310;1304;22024;-90
2022/11/19 12:05:45;;;;;;;22.80;20.80;;;;;;;-0.15;74.54;97509.81;105259;1317;22239;-87
2022/11/19 12:08:21;;;;;;;23.70;21.50;;;;;;;-0.19;71.49;97516.40;104794;1327;22165;-91
2022/11/19 12:11:05;;;;;;;23.60;21.50;;;;;;;-0.58;72.93;97518.94;104831;1320;22218;-90